sensor_id;sensor_type;location;lat;lon;timestamp;P1;durP1;ratioP1;P2;durP2;ratioP2
23148;SDS011;11743;51.228;22.498;2022-09-27T00:00:14;26.73;;;17.27;;
23148;SDS011;11743;51.228;22.498;2022-09-27T00:00:36;31.05;;;16.35;;
23148;SDS011;11743;51.228;22.498;2022-09-27T00:01:02;54.50;;;17.13;;
23148;SDS011;11743;51.228;22.498;2022-09-27T00:01:28;31.67;;;16.65;;
23148;SDS011;11743;51.228;22.498;2022-09-27T00:01:50;28.58;;;16.70;;
23148;SDS011;11743;51.228;22.498;2022-09-27T00:02:12;32.20;;;16.08;;
23148;SDS011;11743;51.228;22.498;2022-09-27T00:02:35;30.50;;;16.08;;
23148;SDS011;11743;51.228;22.498;2022-09-27T00:02:57;41.05;;;16.75;;
23148;SDS011;11743;51.228;22.498;2022-09-27T00:03:19;50.70;;;15.80;;
23148;SDS011;11743;51.228;22.498;2022-09-27T00:03:41;45.33;;;15.32;;
23148;SDS011;11743;51.228;22.498;2022-09-27T00:04:04;33.05;;;15.23;;
23148;SDS011;11743;51.228;22.498;2022-09-27T00:04:28;31.20;;;16.27;;
23148;SDS011;11743;51.228;22.498;2022-09-27T00:04:51;35.10;;;16.10;;
23148;SDS011;11743;51.228;22.498;2022-09-27T00:05:13;56.40;;;16.08;;
23148;SDS011;11743;51.228;22.498;2022-09-27T00:05:38;89.20;;;15.95;;
23148;SDS011;11743;51.228;22.498;2022-09-27T00:06:01;43.70;;;15.48;;
23148;SDS011;11743;51.228;22.498;2022-09-27T00:06:30;80.88;;;16.83;;
23148;SDS011;11743;51.228;22.498;2022-09-27T00:07:00;39.47;;;16.35;;
23148;SDS011;11743;51.228;22.498;2022-09-27T00:07:23;27.60;;;16.25;;
23148;SDS011;11743;51.228;22.498;2022-09-27T00:07:45;74.43;;;15.63;;
23148;SDS011;11743;51.228;22.498;2022-09-27T00:08:07;56.22;;;16.00;;
23148;SDS011;11743;51.228;22.498;2022-09-27T00:08:33;30.90;;;16.10;;
23148;SDS011;11743;51.228;22.498;2022-09-27T00:08:56;29.33;;;15.60;;
23148;SDS011;11743;51.228;22.498;2022-09-27T00:09:21;27.65;;;15.98;;
23148;SDS011;11743;51.228;22.498;2022-09-27T00:09:43;25.95;;;15.27;;
23148;SDS011;11743;51.228;22.498;2022-09-27T00:10:06;26.17;;;15.20;;
23148;SDS011;11743;51.228;22.498;2022-09-27T00:10:29;36.25;;;15.10;;
23148;SDS011;11743;51.228;22.498;2022-09-27T00:11:01;30.83;;;14.63;;
23148;SDS011;11743;51.228;22.498;2022-09-27T00:11:52;58.28;;;14.82;;
23148;SDS011;11743;51.228;22.498;2022-09-27T00:12:14;31.45;;;13.98;;
23148;SDS011;11743;51.228;22.498;2022-09-27T00:12:36;34.35;;;13.93;;
23148;SDS011;11743;51.228;22.498;2022-09-27T00:13:00;54.40;;;14.82;;
23148;SDS011;11743;51.228;22.498;2022-09-27T00:13:23;65.43;;;15.23;;
23148;SDS011;11743;51.228;22.498;2022-09-27T00:13:47;36.20;;;14.75;;
23148;SDS011;11743;51.228;22.498;2022-09-27T00:14:10;94.10;;;14.95;;
23148;SDS011;11743;51.228;22.498;2022-09-27T00:14:35;100.37;;;14.90;;
23148;SDS011;11743;51.228;22.498;2022-09-27T00:14:59;42.00;;;14.25;;
23148;SDS011;11743;51.228;22.498;2022-09-27T00:15:22;38.33;;;14.40;;
23148;SDS011;11743;51.228;22.498;2022-09-27T00:15:44;34.50;;;13.65;;
23148;SDS011;11743;51.228;22.498;2022-09-27T00:16:06;47.30;;;14.57;;
23148;SDS011;11743;51.228;22.498;2022-09-27T00:16:30;60.00;;;14.30;;
23148;SDS011;11743;51.228;22.498;2022-09-27T00:16:55;69.90;;;14.93;;
23148;SDS011;11743;51.228;22.498;2022-09-27T00:17:17;38.03;;;14.23;;
23148;SDS011;11743;51.228;22.498;2022-09-27T00:17:39;67.00;;;14.18;;
23148;SDS011;11743;51.228;22.498;2022-09-27T00:18:01;55.30;;;14.18;;
23148;SDS011;11743;51.228;22.498;2022-09-27T00:18:26;93.63;;;14.77;;
23148;SDS011;11743;51.228;22.498;2022-09-27T00:18:50;52.75;;;13.43;;
23148;SDS011;11743;51.228;22.498;2022-09-27T00:19:13;94.05;;;14.85;;
23148;SDS011;11743;51.228;22.498;2022-09-27T00:19:43;74.32;;;14.57;;
23148;SDS011;11743;51.228;22.498;2022-09-27T00:20:06;73.65;;;14.18;;
23148;SDS011;11743;51.228;22.498;2022-09-27T00:20:29;65.45;;;13.73;;
23148;SDS011;11743;51.228;22.498;2022-09-27T00:20:51;119.78;;;14.10;;
23148;SDS011;11743;51.228;22.498;2022-09-27T00:21:13;60.45;;;13.60;;
23148;SDS011;11743;51.228;22.498;2022-09-27T00:21:35;27.55;;;13.82;;
23148;SDS011;11743;51.228;22.498;2022-09-27T00:21:59;65.35;;;14.60;;
23148;SDS011;11743;51.228;22.498;2022-09-27T00:22:22;70.93;;;14.10;;
23148;SDS011;11743;51.228;22.498;2022-09-27T00:22:47;86.65;;;14.48;;
23148;SDS011;11743;51.228;22.498;2022-09-27T00:23:12;49.78;;;12.50;;
23148;SDS011;11743;51.228;22.498;2022-09-27T00:23:34;90.63;;;14.32;;
23148;SDS011;11743;51.228;22.498;2022-09-27T00:24:00;84.40;;;14.25;;
23148;SDS011;11743;51.228;22.498;2022-09-27T00:24:23;58.42;;;13.68;;
23148;SDS011;11743;51.228;22.498;2022-09-27T00:24:47;86.82;;;14.20;;
23148;SDS011;11743;51.228;22.498;2022-09-27T00:25:09;56.13;;;13.30;;
23148;SDS011;11743;51.228;22.498;2022-09-27T00:25:31;51.22;;;14.30;;
23148;SDS011;11743;51.228;22.498;2022-09-27T00:25:54;34.10;;;14.07;;
23148;SDS011;11743;51.228;22.498;2022-09-27T00:26:17;34.70;;;13.82;;
23148;SDS011;11743;51.228;22.498;2022-09-27T00:26:41;50.70;;;14.57;;
23148;SDS011;11743;51.228;22.498;2022-09-27T00:27:09;31.50;;;14.18;;
23148;SDS011;11743;51.228;22.498;2022-09-27T00:27:31;30.65;;;14.18;;
23148;SDS011;11743;51.228;22.498;2022-09-27T00:27:54;26.95;;;14.85;;
23148;SDS011;11743;51.228;22.498;2022-09-27T00:28:24;28.67;;;15.20;;
23148;SDS011;11743;51.228;22.498;2022-09-27T00:28:49;30.83;;;14.13;;
23148;SDS011;11743;51.228;22.498;2022-09-27T00:29:12;51.20;;;14.18;;
23148;SDS011;11743;51.228;22.498;2022-09-27T00:29:35;36.80;;;14.05;;
23148;SDS011;11743;51.228;22.498;2022-09-27T00:29:59;22.73;;;14.07;;
23148;SDS011;11743;51.228;22.498;2022-09-27T00:30:22;35.88;;;15.43;;
23148;SDS011;11743;51.228;22.498;2022-09-27T00:30:45;42.17;;;14.90;;
23148;SDS011;11743;51.228;22.498;2022-09-27T00:31:16;48.00;;;15.60;;
23148;SDS011;11743;51.228;22.498;2022-09-27T00:31:43;32.17;;;14.45;;
23148;SDS011;11743;51.228;22.498;2022-09-27T00:32:05;38.45;;;14.18;;
23148;SDS011;11743;51.228;22.498;2022-09-27T00:32:27;47.78;;;14.55;;
23148;SDS011;11743;51.228;22.498;2022-09-27T00:32:49;33.20;;;14.38;;
23148;SDS011;11743;51.228;22.498;2022-09-27T00:33:13;38.78;;;14.85;;
23148;SDS011;11743;51.228;22.498;2022-09-27T00:33:35;34.08;;;14.30;;
23148;SDS011;11743;51.228;22.498;2022-09-27T00:33:58;35.63;;;14.18;;
23148;SDS011;11743;51.228;22.498;2022-09-27T00:34:22;34.00;;;14.60;;
23148;SDS011;11743;51.228;22.498;2022-09-27T00:34:46;51.35;;;15.13;;
23148;SDS011;11743;51.228;22.498;2022-09-27T00:35:08;40.92;;;14.25;;
23148;SDS011;11743;51.228;22.498;2022-09-27T00:35:30;36.50;;;14.52;;
23148;SDS011;11743;51.228;22.498;2022-09-27T00:35:52;34.67;;;14.50;;
23148;SDS011;11743;51.228;22.498;2022-09-27T00:36:15;25.98;;;13.93;;
23148;SDS011;11743;51.228;22.498;2022-09-27T00:36:42;27.30;;;13.27;;
23148;SDS011;11743;51.228;22.498;2022-09-27T00:37:04;41.88;;;12.05;;
23148;SDS011;11743;51.228;22.498;2022-09-27T00:37:26;46.38;;;11.77;;
23148;SDS011;11743;51.228;22.498;2022-09-27T00:37:48;40.72;;;11.93;;
23148;SDS011;11743;51.228;22.498;2022-09-27T00:38:10;43.13;;;12.07;;
23148;SDS011;11743;51.228;22.498;2022-09-27T00:38:33;35.90;;;12.32;;
23148;SDS011;11743;51.228;22.498;2022-09-27T00:38:58;47.03;;;12.93;;
23148;SDS011;11743;51.228;22.498;2022-09-27T00:39:21;48.50;;;12.70;;
23148;SDS011;11743;51.228;22.498;2022-09-27T00:39:46;38.47;;;11.93;;
23148;SDS011;11743;51.228;22.498;2022-09-27T00:40:08;32.70;;;12.20;;
23148;SDS011;11743;51.228;22.498;2022-09-27T00:40:30;35.88;;;12.57;;
23148;SDS011;11743;51.228;22.498;2022-09-27T00:40:55;35.35;;;12.85;;
23148;SDS011;11743;51.228;22.498;2022-09-27T00:41:27;37.83;;;13.45;;
23148;SDS011;11743;51.228;22.498;2022-09-27T00:41:55;24.67;;;13.70;;
23148;SDS011;11743;51.228;22.498;2022-09-27T00:42:17;26.48;;;14.02;;
23148;SDS011;11743;51.228;22.498;2022-09-27T00:42:39;25.75;;;14.65;;
23148;SDS011;11743;51.228;22.498;2022-09-27T00:43:01;24.25;;;13.77;;
23148;SDS011;11743;51.228;22.498;2022-09-27T00:43:41;26.38;;;14.13;;
23148;SDS011;11743;51.228;22.498;2022-09-27T00:44:54;36.70;;;14.52;;
23148;SDS011;11743;51.228;22.498;2022-09-27T00:45:22;47.33;;;14.45;;
23148;SDS011;11743;51.228;22.498;2022-09-27T00:45:46;38.63;;;13.63;;
23148;SDS011;11743;51.228;22.498;2022-09-27T00:46:25;70.78;;;13.77;;
23148;SDS011;11743;51.228;22.498;2022-09-27T00:47:13;62.40;;;14.10;;
23148;SDS011;11743;51.228;22.498;2022-09-27T00:47:50;31.45;;;12.95;;
23148;SDS011;11743;51.228;22.498;2022-09-27T00:48:26;43.67;;;13.73;;
23148;SDS011;11743;51.228;22.498;2022-09-27T00:49:11;31.05;;;11.90;;
23148;SDS011;11743;51.228;22.498;2022-09-27T00:49:43;26.42;;;11.82;;
23148;SDS011;11743;51.228;22.498;2022-09-27T00:51:06;26.00;;;12.60;;
23148;SDS011;11743;51.228;22.498;2022-09-27T00:51:33;26.73;;;12.52;;
23148;SDS011;11743;51.228;22.498;2022-09-27T00:52:02;33.13;;;12.80;;
23148;SDS011;11743;51.228;22.498;2022-09-27T00:52:48;22.63;;;12.80;;
23148;SDS011;11743;51.228;22.498;2022-09-27T00:53:20;23.98;;;13.25;;
23148;SDS011;11743;51.228;22.498;2022-09-27T00:53:54;22.38;;;13.50;;
23148;SDS011;11743;51.228;22.498;2022-09-27T00:54:20;18.38;;;13.10;;
23148;SDS011;11743;51.228;22.498;2022-09-27T00:54:48;30.90;;;13.57;;
23148;SDS011;11743;51.228;22.498;2022-09-27T00:55:19;25.98;;;13.45;;
23148;SDS011;11743;51.228;22.498;2022-09-27T00:55:53;25.25;;;11.68;;
23148;SDS011;11743;51.228;22.498;2022-09-27T00:56:19;28.65;;;12.02;;
23148;SDS011;11743;51.228;22.498;2022-09-27T00:56:46;22.77;;;12.20;;
23148;SDS011;11743;51.228;22.498;2022-09-27T00:57:10;23.10;;;12.10;;
23148;SDS011;11743;51.228;22.498;2022-09-27T00:57:34;24.20;;;12.02;;
23148;SDS011;11743;51.228;22.498;2022-09-27T00:58:01;29.25;;;11.80;;
23148;SDS011;11743;51.228;22.498;2022-09-27T00:58:29;31.60;;;11.70;;
23148;SDS011;11743;51.228;22.498;2022-09-27T00:59:08;25.33;;;11.80;;
23148;SDS011;11743;51.228;22.498;2022-09-27T00:59:43;22.15;;;11.57;;
23148;SDS011;11743;51.228;22.498;2022-09-27T01:00:09;29.58;;;11.65;;
23148;SDS011;11743;51.228;22.498;2022-09-27T01:00:35;30.95;;;11.38;;
23148;SDS011;11743;51.228;22.498;2022-09-27T01:01:04;23.00;;;11.35;;
23148;SDS011;11743;51.228;22.498;2022-09-27T01:01:36;22.42;;;11.30;;
23148;SDS011;11743;51.228;22.498;2022-09-27T01:01:59;23.27;;;11.45;;
23148;SDS011;11743;51.228;22.498;2022-09-27T01:02:22;27.55;;;10.63;;
23148;SDS011;11743;51.228;22.498;2022-09-27T01:02:48;32.80;;;10.35;;
23148;SDS011;11743;51.228;22.498;2022-09-27T01:03:21;29.65;;;10.10;;
23148;SDS011;11743;51.228;22.498;2022-09-27T01:04:18;23.15;;;9.98;;
23148;SDS011;11743;51.228;22.498;2022-09-27T01:04:44;25.25;;;10.55;;
23148;SDS011;11743;51.228;22.498;2022-09-27T01:05:15;31.30;;;9.88;;
23148;SDS011;11743;51.228;22.498;2022-09-27T01:05:39;24.08;;;9.63;;
23148;SDS011;11743;51.228;22.498;2022-09-27T01:06:03;24.58;;;9.50;;
23148;SDS011;11743;51.228;22.498;2022-09-27T01:06:28;18.83;;;9.77;;
23148;SDS011;11743;51.228;22.498;2022-09-27T01:06:51;18.25;;;9.40;;
23148;SDS011;11743;51.228;22.498;2022-09-27T01:07:13;19.67;;;9.65;;
23148;SDS011;11743;51.228;22.498;2022-09-27T01:07:39;24.05;;;10.02;;
23148;SDS011;11743;51.228;22.498;2022-09-27T01:08:02;15.80;;;9.10;;
23148;SDS011;11743;51.228;22.498;2022-09-27T01:08:24;25.80;;;9.30;;
23148;SDS011;11743;51.228;22.498;2022-09-27T01:08:46;26.30;;;9.52;;
23148;SDS011;11743;51.228;22.498;2022-09-27T01:09:12;24.15;;;9.13;;
23148;SDS011;11743;51.228;22.498;2022-09-27T01:09:38;24.80;;;9.00;;
23148;SDS011;11743;51.228;22.498;2022-09-27T01:10:04;21.95;;;9.07;;
23148;SDS011;11743;51.228;22.498;2022-09-27T01:10:27;18.00;;;9.13;;
23148;SDS011;11743;51.228;22.498;2022-09-27T01:11:59;24.73;;;9.23;;
23148;SDS011;11743;51.228;22.498;2022-09-27T01:12:44;21.63;;;9.25;;
23148;SDS011;11743;51.228;22.498;2022-09-27T01:18:42;26.50;;;9.00;;
23148;SDS011;11743;51.228;22.498;2022-09-27T01:20:43;26.63;;;8.82;;
23148;SDS011;11743;51.228;22.498;2022-09-27T01:21:43;18.23;;;8.38;;
23148;SDS011;11743;51.228;22.498;2022-09-27T01:22:21;23.73;;;7.95;;
23148;SDS011;11743;51.228;22.498;2022-09-27T01:22:51;27.50;;;7.85;;
23148;SDS011;11743;51.228;22.498;2022-09-27T01:28:28;21.92;;;7.80;;
23148;SDS011;11743;51.228;22.498;2022-09-27T01:30:20;25.67;;;7.93;;
23148;SDS011;11743;51.228;22.498;2022-09-27T01:31:02;19.08;;;7.78;;
23148;SDS011;11743;51.228;22.498;2022-09-27T01:32:22;20.73;;;8.48;;
23148;SDS011;11743;51.228;22.498;2022-09-27T01:33:45;31.80;;;8.10;;
23148;SDS011;11743;51.228;22.498;2022-09-27T01:34:58;23.55;;;8.57;;
23148;SDS011;11743;51.228;22.498;2022-09-27T01:36:33;19.77;;;8.20;;
23148;SDS011;11743;51.228;22.498;2022-09-27T01:37:26;18.60;;;8.50;;
23148;SDS011;11743;51.228;22.498;2022-09-27T01:38:44;18.02;;;8.40;;
23148;SDS011;11743;51.228;22.498;2022-09-27T01:40:56;16.52;;;8.57;;
23148;SDS011;11743;51.228;22.498;2022-09-27T01:41:37;20.25;;;9.07;;
23148;SDS011;11743;51.228;22.498;2022-09-27T01:42:07;38.85;;;8.50;;
23148;SDS011;11743;51.228;22.498;2022-09-27T01:43:17;28.27;;;8.80;;
23148;SDS011;11743;51.228;22.498;2022-09-27T01:43:37;18.13;;;9.27;;
23148;SDS011;11743;51.228;22.498;2022-09-27T01:44:18;17.95;;;9.38;;
23148;SDS011;11743;51.228;22.498;2022-09-27T01:46:02;33.13;;;8.90;;
23148;SDS011;11743;51.228;22.498;2022-09-27T01:46:35;16.50;;;8.32;;
23148;SDS011;11743;51.228;22.498;2022-09-27T01:47:11;12.80;;;9.07;;
23148;SDS011;11743;51.228;22.498;2022-09-27T01:48:25;18.30;;;9.55;;
23148;SDS011;11743;51.228;22.498;2022-09-27T01:48:56;19.42;;;8.60;;
23148;SDS011;11743;51.228;22.498;2022-09-27T01:49:29;14.65;;;9.50;;
23148;SDS011;11743;51.228;22.498;2022-09-27T01:50:10;16.88;;;9.32;;
23148;SDS011;11743;51.228;22.498;2022-09-27T01:50:39;16.52;;;9.50;;
23148;SDS011;11743;51.228;22.498;2022-09-27T01:51:08;19.27;;;10.00;;
23148;SDS011;11743;51.228;22.498;2022-09-27T01:51:38;17.73;;;9.68;;
23148;SDS011;11743;51.228;22.498;2022-09-27T01:52:12;22.92;;;9.50;;
23148;SDS011;11743;51.228;22.498;2022-09-27T01:52:41;29.52;;;9.32;;
23148;SDS011;11743;51.228;22.498;2022-09-27T01:53:36;19.60;;;8.95;;
23148;SDS011;11743;51.228;22.498;2022-09-27T01:54:04;19.33;;;9.15;;
23148;SDS011;11743;51.228;22.498;2022-09-27T01:54:37;11.63;;;9.05;;
23148;SDS011;11743;51.228;22.498;2022-09-27T01:55:14;14.40;;;9.20;;
23148;SDS011;11743;51.228;22.498;2022-09-27T01:55:42;19.05;;;9.45;;
23148;SDS011;11743;51.228;22.498;2022-09-27T01:56:15;23.73;;;9.48;;
23148;SDS011;11743;51.228;22.498;2022-09-27T01:56:45;21.38;;;9.43;;
23148;SDS011;11743;51.228;22.498;2022-09-27T01:57:15;19.33;;;9.02;;
23148;SDS011;11743;51.228;22.498;2022-09-27T01:57:42;17.98;;;9.32;;
23148;SDS011;11743;51.228;22.498;2022-09-27T01:58:10;14.50;;;9.45;;
23148;SDS011;11743;51.228;22.498;2022-09-27T01:59:57;14.27;;;9.43;;
23148;SDS011;11743;51.228;22.498;2022-09-27T02:00:22;28.25;;;9.63;;
23148;SDS011;11743;51.228;22.498;2022-09-27T02:00:45;25.52;;;8.63;;
23148;SDS011;11743;51.228;22.498;2022-09-27T02:01:10;13.45;;;8.80;;
23148;SDS011;11743;51.228;22.498;2022-09-27T02:01:37;16.88;;;9.45;;
23148;SDS011;11743;51.228;22.498;2022-09-27T02:02:03;25.83;;;9.55;;
23148;SDS011;11743;51.228;22.498;2022-09-27T02:02:32;19.90;;;9.25;;
23148;SDS011;11743;51.228;22.498;2022-09-27T02:03:11;15.52;;;9.90;;
23148;SDS011;11743;51.228;22.498;2022-09-27T02:03:39;20.95;;;9.32;;
23148;SDS011;11743;51.228;22.498;2022-09-27T02:04:04;12.43;;;9.10;;
23148;SDS011;11743;51.228;22.498;2022-09-27T02:04:32;20.13;;;8.80;;
23148;SDS011;11743;51.228;22.498;2022-09-27T02:04:59;17.60;;;9.00;;
23148;SDS011;11743;51.228;22.498;2022-09-27T02:05:24;16.92;;;9.35;;
23148;SDS011;11743;51.228;22.498;2022-09-27T02:05:55;20.20;;;9.35;;
23148;SDS011;11743;51.228;22.498;2022-09-27T02:06:25;19.75;;;8.65;;
23148;SDS011;11743;51.228;22.498;2022-09-27T02:06:52;15.43;;;9.18;;
23148;SDS011;11743;51.228;22.498;2022-09-27T02:07:44;17.60;;;9.23;;
23148;SDS011;11743;51.228;22.498;2022-09-27T02:08:20;22.63;;;9.50;;
23148;SDS011;11743;51.228;22.498;2022-09-27T02:09:26;20.77;;;9.55;;
23148;SDS011;11743;51.228;22.498;2022-09-27T02:09:59;18.35;;;9.57;;
23148;SDS011;11743;51.228;22.498;2022-09-27T02:10:31;15.18;;;8.75;;
23148;SDS011;11743;51.228;22.498;2022-09-27T02:10:57;12.02;;;8.63;;
23148;SDS011;11743;51.228;22.498;2022-09-27T02:11:21;13.20;;;8.57;;
23148;SDS011;11743;51.228;22.498;2022-09-27T02:11:44;12.05;;;8.80;;
23148;SDS011;11743;51.228;22.498;2022-09-27T02:12:18;15.85;;;9.00;;
23148;SDS011;11743;51.228;22.498;2022-09-27T02:12:51;19.20;;;9.23;;
23148;SDS011;11743;51.228;22.498;2022-09-27T02:14:18;13.07;;;9.02;;
23148;SDS011;11743;51.228;22.498;2022-09-27T02:15:14;21.00;;;9.40;;
23148;SDS011;11743;51.228;22.498;2022-09-27T02:15:40;14.32;;;9.13;;
23148;SDS011;11743;51.228;22.498;2022-09-27T02:16:32;19.88;;;8.55;;
23148;SDS011;11743;51.228;22.498;2022-09-27T02:17:19;12.85;;;8.25;;
23148;SDS011;11743;51.228;22.498;2022-09-27T02:18:12;14.98;;;8.85;;
23148;SDS011;11743;51.228;22.498;2022-09-27T02:18:50;10.70;;;8.63;;
23148;SDS011;11743;51.228;22.498;2022-09-27T02:20:34;22.35;;;8.32;;
23148;SDS011;11743;51.228;22.498;2022-09-27T02:21:01;14.15;;;7.95;;
23148;SDS011;11743;51.228;22.498;2022-09-27T02:21:32;15.80;;;8.63;;
23148;SDS011;11743;51.228;22.498;2022-09-27T02:23:09;18.27;;;8.60;;
23148;SDS011;11743;51.228;22.498;2022-09-27T02:23:57;13.60;;;8.60;;
23148;SDS011;11743;51.228;22.498;2022-09-27T02:24:23;18.08;;;8.60;;
23148;SDS011;11743;51.228;22.498;2022-09-27T02:24:59;20.05;;;8.55;;
23148;SDS011;11743;51.228;22.498;2022-09-27T02:26:11;11.02;;;8.63;;
23148;SDS011;11743;51.228;22.498;2022-09-27T02:26:49;15.25;;;8.75;;
23148;SDS011;11743;51.228;22.498;2022-09-27T02:27:28;20.15;;;8.88;;
23148;SDS011;11743;51.228;22.498;2022-09-27T02:28:52;13.32;;;8.90;;
23148;SDS011;11743;51.228;22.498;2022-09-27T02:29:20;12.10;;;8.60;;
23148;SDS011;11743;51.228;22.498;2022-09-27T02:29:52;19.90;;;8.93;;
23148;SDS011;11743;51.228;22.498;2022-09-27T02:30:26;16.00;;;9.00;;
23148;SDS011;11743;51.228;22.498;2022-09-27T02:30:48;13.95;;;9.18;;
23148;SDS011;11743;51.228;22.498;2022-09-27T02:31:11;12.55;;;9.10;;
23148;SDS011;11743;51.228;22.498;2022-09-27T02:31:33;10.60;;;9.13;;
23148;SDS011;11743;51.228;22.498;2022-09-27T02:31:58;12.80;;;8.90;;
23148;SDS011;11743;51.228;22.498;2022-09-27T02:32:22;16.83;;;9.15;;
23148;SDS011;11743;51.228;22.498;2022-09-27T02:32:44;11.52;;;9.20;;
23148;SDS011;11743;51.228;22.498;2022-09-27T02:33:06;19.20;;;8.77;;
23148;SDS011;11743;51.228;22.498;2022-09-27T02:33:44;11.82;;;9.18;;
23148;SDS011;11743;51.228;22.498;2022-09-27T02:34:15;10.40;;;8.98;;
23148;SDS011;11743;51.228;22.498;2022-09-27T02:34:44;11.73;;;8.85;;
23148;SDS011;11743;51.228;22.498;2022-09-27T02:35:12;13.43;;;9.35;;
23148;SDS011;11743;51.228;22.498;2022-09-27T02:35:41;13.82;;;8.93;;
23148;SDS011;11743;51.228;22.498;2022-09-27T02:36:03;13.65;;;9.38;;
23148;SDS011;11743;51.228;22.498;2022-09-27T02:36:31;24.55;;;9.23;;
23148;SDS011;11743;51.228;22.498;2022-09-27T02:36:59;17.00;;;9.23;;
23148;SDS011;11743;51.228;22.498;2022-09-27T02:37:23;11.45;;;9.13;;
23148;SDS011;11743;51.228;22.498;2022-09-27T02:37:45;11.63;;;9.43;;
23148;SDS011;11743;51.228;22.498;2022-09-27T02:38:08;17.75;;;9.32;;
23148;SDS011;11743;51.228;22.498;2022-09-27T02:38:31;18.20;;;9.40;;
23148;SDS011;11743;51.228;22.498;2022-09-27T02:38:53;13.70;;;9.40;;
23148;SDS011;11743;51.228;22.498;2022-09-27T02:39:16;13.02;;;9.18;;
23148;SDS011;11743;51.228;22.498;2022-09-27T02:39:38;11.98;;;9.95;;
23148;SDS011;11743;51.228;22.498;2022-09-27T02:40:03;21.10;;;9.48;;
23148;SDS011;11743;51.228;22.498;2022-09-27T02:40:30;20.98;;;9.05;;
23148;SDS011;11743;51.228;22.498;2022-09-27T02:41:02;11.68;;;9.50;;
23148;SDS011;11743;51.228;22.498;2022-09-27T02:41:24;11.75;;;9.43;;
23148;SDS011;11743;51.228;22.498;2022-09-27T02:41:46;11.23;;;9.63;;
23148;SDS011;11743;51.228;22.498;2022-09-27T02:42:08;10.30;;;8.90;;
23148;SDS011;11743;51.228;22.498;2022-09-27T02:42:33;11.38;;;9.20;;
23148;SDS011;11743;51.228;22.498;2022-09-27T02:42:58;12.23;;;9.30;;
23148;SDS011;11743;51.228;22.498;2022-09-27T02:43:23;13.98;;;9.20;;
23148;SDS011;11743;51.228;22.498;2022-09-27T02:43:50;25.15;;;9.05;;
23148;SDS011;11743;51.228;22.498;2022-09-27T02:44:16;21.70;;;8.63;;
23148;SDS011;11743;51.228;22.498;2022-09-27T02:44:52;21.33;;;8.35;;
23148;SDS011;11743;51.228;22.498;2022-09-27T02:45:15;19.73;;;8.43;;
23148;SDS011;11743;51.228;22.498;2022-09-27T02:47:26;17.73;;;8.52;;
23148;SDS011;11743;51.228;22.498;2022-09-27T02:47:59;13.07;;;8.35;;
23148;SDS011;11743;51.228;22.498;2022-09-27T02:48:31;15.23;;;8.63;;
23148;SDS011;11743;51.228;22.498;2022-09-27T02:50:45;12.60;;;7.90;;
23148;SDS011;11743;51.228;22.498;2022-09-27T02:54:02;12.57;;;7.90;;
23148;SDS011;11743;51.228;22.498;2022-09-27T02:55:03;22.60;;;7.72;;
23148;SDS011;11743;51.228;22.498;2022-09-27T02:55:50;20.20;;;8.00;;
23148;SDS011;11743;51.228;22.498;2022-09-27T02:56:57;9.07;;;7.63;;
23148;SDS011;11743;51.228;22.498;2022-09-27T02:59:17;14.82;;;7.70;;
23148;SDS011;11743;51.228;22.498;2022-09-27T03:00:37;10.90;;;7.68;;
23148;SDS011;11743;51.228;22.498;2022-09-27T03:01:11;10.02;;;7.88;;
23148;SDS011;11743;51.228;22.498;2022-09-27T03:04:50;8.77;;;7.97;;
23148;SDS011;11743;51.228;22.498;2022-09-27T03:05:16;17.98;;;7.63;;
23148;SDS011;11743;51.228;22.498;2022-09-27T03:05:50;14.73;;;7.30;;
23148;SDS011;11743;51.228;22.498;2022-09-27T03:06:19;9.05;;;7.22;;
23148;SDS011;11743;51.228;22.498;2022-09-27T03:06:44;14.52;;;7.13;;
23148;SDS011;11743;51.228;22.498;2022-09-27T03:07:08;16.95;;;7.05;;
23148;SDS011;11743;51.228;22.498;2022-09-27T03:07:34;14.77;;;7.43;;
23148;SDS011;11743;51.228;22.498;2022-09-27T03:07:58;11.20;;;7.75;;
23148;SDS011;11743;51.228;22.498;2022-09-27T03:08:23;10.38;;;7.30;;
23148;SDS011;11743;51.228;22.498;2022-09-27T03:08:48;9.32;;;6.88;;
23148;SDS011;11743;51.228;22.498;2022-09-27T03:09:21;11.77;;;7.65;;
23148;SDS011;11743;51.228;22.498;2022-09-27T03:09:46;7.40;;;6.57;;
23148;SDS011;11743;51.228;22.498;2022-09-27T03:10:16;8.45;;;6.72;;
23148;SDS011;11743;51.228;22.498;2022-09-27T03:10:40;9.20;;;7.32;;
23148;SDS011;11743;51.228;22.498;2022-09-27T03:11:02;8.88;;;7.47;;
23148;SDS011;11743;51.228;22.498;2022-09-27T03:11:27;11.90;;;7.80;;
23148;SDS011;11743;51.228;22.498;2022-09-27T03:11:49;10.10;;;7.03;;
23148;SDS011;11743;51.228;22.498;2022-09-27T03:12:12;10.45;;;7.10;;
23148;SDS011;11743;51.228;22.498;2022-09-27T03:12:35;14.02;;;7.43;;
23148;SDS011;11743;51.228;22.498;2022-09-27T03:12:57;23.30;;;6.75;;
23148;SDS011;11743;51.228;22.498;2022-09-27T03:13:20;12.43;;;6.90;;
23148;SDS011;11743;51.228;22.498;2022-09-27T03:13:43;13.13;;;6.95;;
23148;SDS011;11743;51.228;22.498;2022-09-27T03:14:27;12.40;;;7.00;;
23148;SDS011;11743;51.228;22.498;2022-09-27T03:14:49;10.73;;;6.72;;
23148;SDS011;11743;51.228;22.498;2022-09-27T03:15:14;9.20;;;6.72;;
23148;SDS011;11743;51.228;22.498;2022-09-27T03:15:36;15.93;;;6.97;;
23148;SDS011;11743;51.228;22.498;2022-09-27T03:15:58;27.83;;;6.97;;
23148;SDS011;11743;51.228;22.498;2022-09-27T03:16:22;13.27;;;6.72;;
23148;SDS011;11743;51.228;22.498;2022-09-27T03:16:44;13.07;;;6.93;;
23148;SDS011;11743;51.228;22.498;2022-09-27T03:17:08;7.68;;;6.45;;
23148;SDS011;11743;51.228;22.498;2022-09-27T03:17:31;9.38;;;6.35;;
23148;SDS011;11743;51.228;22.498;2022-09-27T03:17:53;15.50;;;6.53;;
23148;SDS011;11743;51.228;22.498;2022-09-27T03:18:15;45.67;;;6.35;;
23148;SDS011;11743;51.228;22.498;2022-09-27T03:18:37;18.10;;;6.13;;
23148;SDS011;11743;51.228;22.498;2022-09-27T03:18:59;10.15;;;6.40;;
23148;SDS011;11743;51.228;22.498;2022-09-27T03:19:25;25.75;;;6.65;;
23148;SDS011;11743;51.228;22.498;2022-09-27T03:19:48;27.48;;;6.57;;
23148;SDS011;11743;51.228;22.498;2022-09-27T03:20:10;11.97;;;6.80;;
23148;SDS011;11743;51.228;22.498;2022-09-27T03:20:32;12.53;;;6.80;;
23148;SDS011;11743;51.228;22.498;2022-09-27T03:20:55;16.58;;;7.22;;
23148;SDS011;11743;51.228;22.498;2022-09-27T03:21:17;12.52;;;7.35;;
23148;SDS011;11743;51.228;22.498;2022-09-27T03:21:39;12.45;;;7.05;;
23148;SDS011;11743;51.228;22.498;2022-09-27T03:22:03;14.55;;;6.65;;
23148;SDS011;11743;51.228;22.498;2022-09-27T03:22:25;15.98;;;6.57;;
23148;SDS011;11743;51.228;22.498;2022-09-27T03:22:47;15.00;;;6.90;;
23148;SDS011;11743;51.228;22.498;2022-09-27T03:23:10;8.37;;;7.00;;
23148;SDS011;11743;51.228;22.498;2022-09-27T03:23:32;14.40;;;7.55;;
23148;SDS011;11743;51.228;22.498;2022-09-27T03:23:55;14.50;;;7.10;;
23148;SDS011;11743;51.228;22.498;2022-09-27T03:24:19;10.82;;;7.40;;
23148;SDS011;11743;51.228;22.498;2022-09-27T03:24:41;11.93;;;6.63;;
23148;SDS011;11743;51.228;22.498;2022-09-27T03:25:07;23.20;;;6.50;;
23148;SDS011;11743;51.228;22.498;2022-09-27T03:25:32;27.73;;;6.40;;